createdAt,value
2018-04-19T00:00:13.506Z,53.60
2018-04-19T00:02:43.877Z,53.80
2018-04-19T00:05:14.966Z,53.80
2018-04-19T00:07:45.357Z,53.80
2018-04-19T00:10:15.720Z,54.10
2018-04-19T00:12:46.087Z,53.90
2018-04-19T00:15:17.194Z,54.30
2018-04-19T00:17:47.553Z,54.30
2018-04-19T00:20:18.681Z,54.40
2018-04-19T00:22:49.069Z,54.40
2018-04-19T00:25:19.430Z,54.50
2018-04-19T00:27:49.789Z,54.90
2018-04-19T00:30:20.955Z,54.80
2018-04-19T00:32:51.336Z,54.80
2018-04-19T00:35:21.699Z,54.70
2018-04-19T00:37:52.074Z,54.90
2018-04-19T00:40:22.441Z,55.10
2018-04-19T00:42:52.751Z,55.10
2018-04-19T00:45:23.110Z,54.70
2018-04-19T00:47:53.477Z,55.30
2018-04-19T00:50:24.044Z,55.60
2018-04-19T00:53:12.177Z,55.70
2018-04-19T00:55:43.288Z,55.50
2018-04-19T00:58:13.655Z,55.40
2018-04-19T01:00:44.799Z,55.60
2018-04-19T01:03:15.914Z,56.10
2018-04-19T01:05:46.261Z,56.00
2018-04-19T01:08:16.653Z,55.90
2018-04-19T01:10:47.021Z,56.50
2018-04-19T01:13:17.375Z,56.70
2018-04-19T01:15:49.802Z,56.80
2018-04-19T01:18:20.157Z,56.80
2018-04-19T01:20:50.531Z,56.30
2018-04-19T01:23:20.932Z,56.90
2018-04-19T01:25:51.276Z,56.80
2018-04-19T01:28:21.636Z,56.20
2018-04-19T01:30:52.218Z,56.60
2018-04-19T01:33:28.715Z,57.70
2018-04-19T01:36:28.763Z,57.50
2018-04-19T01:38:59.073Z,58.50
2018-04-19T01:41:29.380Z,59.00
2018-04-19T01:43:59.766Z,58.30
2018-04-19T01:49:21.962Z,58.60
2018-04-19T01:51:52.299Z,58.80
2018-04-19T01:54:22.665Z,58.60
2018-04-19T01:56:53.818Z,58.00
2018-04-19T01:59:24.170Z,58.60
2018-04-19T02:01:54.753Z,58.20
2018-04-19T02:04:25.883Z,58.60
2018-04-19T02:06:56.246Z,58.50
2018-04-19T02:09:26.553Z,59.10
2018-04-19T02:11:56.971Z,59.40
2018-04-19T02:14:27.324Z,59.20
2018-04-19T02:16:58.715Z,59.30
2018-04-19T02:19:29.098Z,59.80
2018-04-19T02:21:59.457Z,59.40
2018-04-19T02:24:30.842Z,60.10
2018-04-19T02:27:01.170Z,60.40
2018-04-19T02:29:32.296Z,58.80
2018-04-19T02:32:02.648Z,58.70
2018-04-19T02:34:33.033Z,59.30
2018-04-19T02:37:03.338Z,59.70
2018-04-19T02:39:33.650Z,59.90
2018-04-19T02:42:04.027Z,59.70
2018-04-19T02:44:34.365Z,60.50
2018-04-19T02:47:05.494Z,61.30
2018-04-19T02:49:35.890Z,61.30
2018-04-19T02:52:06.199Z,61.40
2018-04-19T02:54:37.561Z,61.60
2018-04-19T02:57:27.045Z,62.40
2018-04-19T02:59:57.388Z,62.50
2018-04-19T03:02:27.754Z,62.20
2018-04-19T03:04:58.148Z,62.60
2018-04-19T03:07:28.455Z,62.90
2018-04-19T03:09:58.799Z,63.00
2018-04-19T03:12:29.240Z,62.50
2018-04-19T03:14:59.525Z,63.10
2018-04-19T03:17:30.909Z,62.90
2018-04-19T03:20:01.272Z,62.40
2018-04-19T03:22:31.630Z,63.00
2018-04-19T03:25:04.037Z,63.20
2018-04-19T03:27:34.401Z,63.20
2018-04-19T03:30:04.970Z,63.10
2018-04-19T03:32:35.324Z,61.60
2018-04-19T03:35:06.472Z,62.30
2018-04-19T03:37:37.591Z,62.70
2018-04-19T03:40:07.954Z,62.70
2018-04-19T03:42:38.322Z,64.20
2018-04-19T03:45:28.056Z,64.50
2018-04-19T03:47:58.457Z,64.20
2018-04-19T03:50:28.822Z,63.90
2018-04-19T03:52:59.183Z,64.70
2018-04-19T03:55:30.591Z,63.80
2018-04-19T03:58:00.928Z,64.00
2018-04-19T04:00:31.279Z,64.10
2018-04-19T04:03:03.682Z,64.80
2018-04-19T04:05:34.034Z,65.20
2018-04-19T04:08:04.402Z,65.80
2018-04-19T04:10:42.095Z,66.60
2018-04-19T04:13:16.740Z,66.10
2018-04-19T04:15:47.109Z,65.70
2018-04-19T04:19:12.188Z,66.20
2018-04-19T04:22:37.387Z,66.10
2018-04-19T04:25:07.767Z,66.80
2018-04-19T04:27:38.108Z,66.70
2018-04-19T04:30:08.462Z,66.90
2018-04-19T04:32:39.050Z,67.40
2018-04-19T04:35:09.399Z,67.80
2018-04-19T04:37:39.761Z,67.40
2018-04-19T04:40:10.148Z,66.80
2018-04-19T04:42:40.514Z,67.20
2018-04-19T04:45:11.903Z,66.90
2018-04-19T04:47:43.302Z,68.50
2018-04-19T04:50:13.659Z,68.10
2018-04-19T04:52:44.019Z,68.10
2018-04-19T04:55:14.415Z,68.30
2018-04-19T04:57:44.773Z,68.40
2018-04-19T05:00:15.138Z,67.30
2018-04-19T05:02:45.503Z,68.30
2018-04-19T05:05:16.624Z,67.80
2018-04-19T05:07:46.975Z,67.70
2018-04-19T05:10:17.366Z,67.10
2018-04-19T05:12:47.711Z,67.50
2018-04-19T05:15:18.835Z,67.70
2018-04-19T05:17:49.197Z,67.70
2018-04-19T05:20:19.546Z,68.60
2018-04-19T05:22:50.633Z,68.00
2018-04-19T05:25:20.989Z,68.00
2018-04-19T05:27:51.347Z,67.90
2018-04-19T05:30:23.754Z,68.10
2018-04-19T05:32:54.132Z,68.50
2018-04-19T05:35:24.499Z,67.50
2018-04-19T05:37:54.845Z,68.90
2018-04-19T05:40:26.004Z,69.70
2018-04-19T05:42:57.119Z,69.40
2018-04-19T05:45:27.456Z,69.20
2018-04-19T05:47:57.827Z,69.20
2018-04-19T05:50:28.185Z,68.70
2018-04-19T05:52:58.550Z,68.90
2018-04-19T05:55:28.922Z,69.10
2018-04-19T05:58:20.700Z,70.10
2018-04-19T06:00:51.087Z,70.00
2018-04-19T06:03:21.438Z,69.50
2018-04-19T06:05:51.795Z,70.60
2018-04-19T06:08:22.184Z,70.30
2018-04-19T06:13:40.264Z,71.10
2018-04-19T06:16:11.389Z,70.40
2018-04-19T06:18:41.765Z,71.10
2018-04-19T06:21:12.153Z,69.40
2018-04-19T06:23:43.259Z,70.00
2018-04-19T06:26:14.649Z,69.60
2018-04-19T06:28:45.746Z,69.80
2018-04-19T06:31:23.254Z,69.70
2018-04-19T06:33:53.610Z,69.70
2018-04-19T06:36:24.726Z,68.10
2018-04-19T06:38:56.040Z,67.30
2018-04-19T06:41:26.439Z,65.80
2018-04-19T06:43:57.564Z,67.10
2018-04-19T06:46:27.930Z,66.90
2018-04-19T06:48:58.336Z,68.00
2018-04-19T06:51:39.846Z,68.30
2018-04-19T06:54:10.237Z,67.40
2018-04-19T06:56:41.369Z,67.30
2018-04-19T06:59:11.724Z,67.30
2018-04-19T07:01:42.107Z,65.60
2018-04-19T07:04:12.489Z,64.70
2018-04-19T07:06:42.858Z,63.10
2018-04-19T07:28:56.506Z,59.80
2018-04-19T07:34:45.869Z,59.00
2018-04-19T07:40:35.270Z,59.00
2018-04-19T07:46:24.655Z,58.50
2018-04-19T07:52:13.980Z,58.50
2018-04-19T07:54:44.576Z,57.90
2018-04-19T07:57:14.984Z,58.20
2018-04-19T07:59:45.365Z,58.70
2018-04-19T08:02:16.488Z,58.20
2018-04-19T08:04:46.858Z,58.00
2018-04-19T08:07:17.254Z,58.40
2018-04-19T08:09:48.385Z,58.20
2018-04-19T08:12:18.731Z,58.40
2018-04-19T08:14:49.228Z,58.80
2018-04-19T08:17:19.498Z,58.90
2018-04-19T08:19:49.852Z,59.20
2018-04-19T08:22:20.361Z,59.30
2018-04-19T08:24:50.788Z,59.20
2018-04-19T08:27:21.184Z,59.40
2018-04-19T08:29:52.347Z,59.50
2018-04-19T08:32:22.709Z,59.40
2018-04-19T08:35:00.252Z,59.40
2018-04-19T08:37:31.391Z,59.60
2018-04-19T08:40:01.732Z,59.50
2018-04-19T08:42:32.088Z,58.90
2018-04-19T08:45:03.481Z,58.80
2018-04-19T08:47:33.843Z,58.80
2018-04-19T08:50:04.247Z,58.80
2018-04-19T08:52:34.585Z,57.50
2018-04-19T08:55:04.953Z,57.40
2018-04-19T08:57:42.509Z,58.00
2018-04-19T09:00:13.627Z,57.10
2018-04-19T09:02:44.033Z,57.10
2018-04-19T09:05:15.129Z,57.30
2018-04-19T09:07:45.473Z,57.20
2018-04-19T09:10:15.818Z,57.80
2018-04-19T09:12:48.233Z,56.80
2018-04-19T09:15:18.596Z,57.60
2018-04-19T09:17:48.968Z,57.40
2018-04-19T09:20:19.341Z,56.30
2018-04-19T09:22:49.835Z,56.70
2018-04-19T09:25:20.283Z,56.90
2018-04-19T09:27:51.445Z,56.20
2018-04-19T09:30:22.064Z,56.20
2018-04-19T09:32:52.414Z,56.80
2018-04-19T09:35:23.829Z,56.30
2018-04-19T09:37:54.910Z,56.90
2018-04-19T09:40:25.259Z,56.90
2018-04-19T09:42:56.662Z,57.10
2018-04-19T09:45:28.043Z,57.30
2018-04-19T09:47:58.430Z,56.60
2018-04-19T09:50:29.574Z,57.00
2018-04-19T09:52:59.936Z,56.90
2018-04-19T09:55:37.470Z,57.00
2018-04-19T09:58:10.702Z,56.70
2018-04-19T10:00:47.060Z,56.20
2018-04-19T10:03:20.162Z,56.40
2018-04-19T10:05:50.506Z,56.30
2018-04-19T10:08:39.998Z,55.80
2018-04-19T10:11:10.367Z,55.70
2018-04-19T10:13:40.709Z,56.30
2018-04-19T10:16:11.166Z,56.50
2018-04-19T10:18:41.448Z,56.20
2018-04-19T10:21:12.801Z,55.30
2018-04-19T10:23:43.940Z,55.20
2018-04-19T10:26:15.089Z,54.80
2018-04-19T10:28:45.455Z,54.80
2018-04-19T10:31:37.002Z,55.80
2018-04-19T10:34:07.668Z,55.70
2018-04-19T10:36:38.740Z,54.40
2018-04-19T10:39:13.231Z,54.30
2018-04-19T10:41:43.535Z,54.40
2018-04-19T10:44:13.891Z,54.00
2018-04-19T10:46:44.289Z,53.80
2018-04-19T10:49:14.651Z,54.40
2018-04-19T10:51:44.961Z,53.70
2018-04-19T10:54:15.348Z,55.00
2018-04-19T10:56:45.687Z,54.40
2018-04-19T10:59:16.043Z,53.70
2018-04-19T11:01:46.457Z,54.00
2018-04-19T11:04:19.508Z,52.60
2018-04-19T11:06:49.859Z,52.60
2018-04-19T11:09:20.241Z,53.00
2018-04-19T11:11:50.583Z,52.70
2018-04-19T11:14:21.157Z,53.00
2018-04-19T11:16:51.551Z,52.20
2018-04-19T11:19:23.958Z,51.90
2018-04-19T11:21:55.071Z,52.30
2018-04-19T11:24:25.435Z,52.20
2018-04-19T11:26:56.548Z,51.70
2018-04-19T11:29:26.885Z,51.80
2018-04-19T11:31:58.037Z,52.00
2018-04-19T11:34:29.116Z,51.30
2018-04-19T11:36:59.486Z,51.30
2018-04-19T11:39:30.891Z,50.80
2018-04-19T11:42:01.317Z,51.30
2018-04-19T11:44:31.607Z,50.40
2018-04-19T11:47:02.750Z,50.90
2018-04-19T11:49:33.836Z,51.30
2018-04-19T11:52:07.267Z,51.30
2018-04-19T11:57:21.839Z,51.00
2018-04-19T11:59:52.223Z,50.10
2018-04-19T12:02:22.596Z,49.80
2018-04-19T12:04:52.954Z,49.20
2018-04-19T12:07:24.100Z,49.00
2018-04-19T12:09:55.207Z,49.60
2018-04-19T12:12:25.552Z,49.60
2018-04-19T12:14:55.928Z,48.50
2018-04-19T12:17:29.362Z,49.40
2018-04-19T12:19:59.721Z,49.90
2018-04-19T12:22:30.866Z,48.10
2018-04-19T12:25:01.996Z,47.10
2018-04-19T12:27:33.104Z,46.60
2018-04-19T12:30:03.490Z,46.60
2018-04-19T12:32:34.852Z,45.60
2018-04-19T12:35:07.251Z,45.50
2018-04-19T12:37:38.739Z,45.20
2018-04-19T12:40:09.028Z,45.30
2018-04-19T12:42:58.779Z,44.50
2018-04-19T12:45:29.158Z,44.90
2018-04-19T12:47:59.513Z,44.30
2018-04-19T12:50:29.888Z,44.20
2018-04-19T12:53:00.246Z,42.70
2018-04-19T12:55:30.595Z,44.20
2018-04-19T12:58:01.712Z,45.60
2018-04-19T13:00:32.046Z,45.50
2018-04-19T13:03:03.173Z,46.10
2018-04-19T13:05:33.545Z,46.10
2018-04-19T13:08:03.884Z,44.50
2018-04-19T13:10:40.406Z,45.00
2018-04-19T13:13:11.533Z,46.20
2018-04-19T13:15:41.877Z,45.50
2018-04-19T13:18:13.048Z,45.10
2018-04-19T13:20:43.360Z,45.00
2018-04-19T13:23:14.484Z,45.50
2018-04-19T13:25:44.859Z,45.50
2018-04-19T13:28:15.189Z,46.10
2018-04-19T13:30:52.738Z,44.50
2018-04-19T13:33:23.865Z,44.80
2018-04-19T13:35:56.249Z,44.20
2018-04-19T13:38:27.381Z,45.90
2018-04-19T13:40:57.722Z,46.30
2018-04-19T13:43:28.797Z,44.90
2018-04-19T13:45:59.188Z,44.80
2018-04-19T13:48:30.317Z,45.60
2018-04-19T13:51:00.673Z,46.60
2018-04-19T13:53:31.820Z,46.00
2018-04-19T13:56:02.941Z,44.60
2018-04-19T13:58:33.287Z,44.60
2018-04-19T14:01:04.423Z,43.60
2018-04-19T14:03:35.525Z,42.10
2018-04-19T14:06:05.863Z,42.10
2018-04-19T14:08:36.245Z,43.60
2018-04-19T14:11:06.582Z,43.60
2018-04-19T14:13:36.947Z,42.60
2018-04-19T14:16:07.330Z,42.20
2018-04-19T14:18:37.691Z,42.70
2018-04-19T14:21:08.076Z,43.50
2018-04-19T14:23:38.400Z,43.00
2018-04-19T14:26:08.769Z,43.70
2018-04-19T14:28:39.108Z,43.80
2018-04-19T14:31:09.527Z,43.10
2018-04-19T14:33:39.853Z,42.10
2018-04-19T14:36:11.215Z,41.40
2018-04-19T14:38:41.576Z,42.60
2018-04-19T14:41:11.912Z,42.50
2018-04-19T14:43:44.318Z,42.70
2018-04-19T14:46:14.682Z,43.10
2018-04-19T14:48:45.807Z,43.70
2018-04-19T14:51:17.188Z,43.60
2018-04-19T14:53:47.565Z,42.40
2018-04-19T14:56:17.925Z,43.70
2018-04-19T14:58:49.052Z,44.10
2018-04-19T15:01:19.435Z,44.10
2018-04-19T15:03:56.941Z,43.90
2018-04-19T15:06:47.725Z,45.10
2018-04-19T15:09:18.087Z,42.90
2018-04-19T15:11:48.424Z,43.00
2018-04-19T15:14:18.805Z,44.40
2018-04-19T15:16:49.168Z,43.70
2018-04-19T15:19:19.505Z,43.80
2018-04-19T15:21:49.884Z,43.20
2018-04-19T15:24:22.275Z,44.30
2018-04-19T15:26:52.620Z,44.30
2018-04-19T15:29:22.981Z,44.60
2018-04-19T15:31:54.134Z,43.00
2018-04-19T15:34:24.466Z,43.00
2018-04-19T15:36:54.844Z,44.40
2018-04-19T15:39:25.187Z,45.20
2018-04-19T15:41:56.304Z,46.00
2018-04-19T15:44:26.665Z,46.00
2018-04-19T15:46:57.817Z,44.90
2018-04-19T15:49:28.916Z,44.20
2018-04-19T15:51:59.255Z,44.10
2018-04-19T15:54:29.595Z,43.40
2018-04-19T15:57:00.720Z,44.40
2018-04-19T15:59:31.094Z,44.30
2018-04-19T16:02:01.434Z,44.10
2018-04-19T16:07:14.997Z,44.80
2018-04-19T16:09:45.369Z,44.30
2018-04-19T16:12:15.697Z,44.90
2018-04-19T16:14:46.839Z,44.60
2018-04-19T16:17:17.966Z,44.60
2018-04-19T16:19:48.325Z,44.50
2018-04-19T16:22:18.707Z,44.00
2018-04-19T16:24:49.120Z,44.90
2018-04-19T16:27:19.700Z,45.30
2018-04-19T16:29:51.868Z,44.80
2018-04-19T16:32:25.036Z,44.80
2018-04-19T16:34:55.375Z,44.60
2018-04-19T16:37:26.537Z,45.50
2018-04-19T16:39:57.641Z,45.40
2018-04-19T16:42:28.004Z,45.40
2018-04-19T16:45:00.182Z,44.80
2018-04-19T16:47:30.535Z,44.80
2018-04-19T16:50:00.888Z,45.60
2018-04-19T16:52:31.281Z,45.80
2018-04-19T16:55:01.594Z,46.20
2018-04-19T16:57:31.965Z,46.60
2018-04-19T17:00:02.341Z,46.20
2018-04-19T17:02:32.960Z,46.00
2018-04-19T17:05:03.277Z,46.80
2018-04-19T17:07:34.426Z,48.00
2018-04-19T17:10:04.796Z,48.00
2018-04-19T17:12:42.495Z,47.30
2018-04-19T17:15:35.475Z,47.40
2018-04-19T17:18:05.876Z,47.50
2018-04-19T17:20:56.323Z,47.20
2018-04-19T17:23:27.477Z,47.50
2018-04-19T17:25:58.590Z,47.10
2018-04-19T17:28:28.968Z,47.00
2018-04-19T17:30:59.366Z,48.30
2018-04-19T17:33:29.744Z,48.40
2018-04-19T17:36:05.217Z,48.30
2018-04-19T17:38:35.597Z,48.60
2018-04-19T17:41:06.013Z,49.40
2018-04-19T17:43:36.366Z,48.90
2018-04-19T17:46:06.755Z,49.30
2018-04-19T17:48:37.119Z,49.10
2018-04-19T17:51:26.876Z,49.30
2018-04-19T17:53:57.253Z,49.50
2018-04-19T17:56:27.652Z,49.20
2018-04-19T17:58:58.050Z,49.70
2018-04-19T18:01:28.417Z,49.40
2018-04-19T18:03:58.791Z,50.10
2018-04-19T18:06:29.949Z,50.80
2018-04-19T18:09:00.274Z,50.70
2018-04-19T18:11:30.636Z,51.20
2018-04-19T18:14:01.025Z,51.20
2018-04-19T18:16:33.406Z,51.70
2018-04-19T18:19:03.788Z,51.80
2018-04-19T18:21:34.175Z,51.70
2018-04-19T18:24:04.542Z,51.60
2018-04-19T18:26:34.897Z,51.80
2018-04-19T18:29:07.066Z,51.80
2018-04-19T18:31:37.430Z,51.80
2018-04-19T18:34:07.782Z,52.80
2018-04-19T18:36:38.163Z,52.60
2018-04-19T18:39:08.488Z,52.30
2018-04-19T18:41:38.854Z,52.70
2018-04-19T18:44:09.192Z,52.40
2018-04-19T18:46:39.561Z,53.10
2018-04-19T18:49:09.920Z,52.50
2018-04-19T18:51:40.281Z,52.60
2018-04-19T18:54:10.932Z,52.70
2018-04-19T18:56:42.057Z,53.50
2018-04-19T18:59:13.415Z,53.10
2018-04-19T19:01:44.537Z,52.70
2018-04-19T19:04:14.905Z,52.60
2018-04-19T19:06:45.249Z,52.30
2018-04-19T19:09:35.952Z,51.70
2018-04-19T19:12:06.343Z,51.60
2018-04-19T19:14:37.474Z,51.50
2018-04-19T19:18:02.400Z,51.50
2018-04-19T19:20:32.796Z,51.90
2018-04-19T19:23:03.133Z,53.00
2018-04-19T19:25:34.481Z,52.90
2018-04-19T19:28:05.594Z,52.50
2018-04-19T19:30:35.955Z,52.50
2018-04-19T19:33:06.350Z,52.70
2018-04-19T19:35:36.707Z,52.40
2018-04-19T19:38:07.825Z,53.60
2018-04-19T19:40:38.218Z,53.00
2018-04-19T19:43:14.715Z,52.40
2018-04-19T19:45:45.056Z,53.10
2018-04-19T19:48:15.452Z,52.40
2018-04-19T19:50:45.814Z,52.50
2018-04-19T19:53:16.179Z,53.00
2018-04-19T19:55:46.566Z,52.90
2018-04-19T19:58:17.708Z,54.30
2018-04-19T20:00:48.017Z,54.50
2018-04-19T20:03:18.361Z,55.10
2018-04-19T20:05:48.746Z,55.40
2018-04-19T20:08:19.079Z,56.30
2018-04-19T20:10:56.571Z,55.50
2018-04-19T20:13:48.342Z,55.40
2018-04-19T20:16:20.518Z,55.80
2018-04-19T20:18:51.651Z,56.20
2018-04-19T20:24:08.669Z,56.10
2018-04-19T20:26:39.010Z,56.40
2018-04-19T20:29:09.353Z,56.50
2018-04-19T20:31:40.482Z,56.30
2018-04-19T20:34:11.604Z,56.30
2018-04-19T20:36:41.945Z,56.20
2018-04-19T20:39:13.092Z,57.30
2018-04-19T20:41:44.219Z,57.90
2018-04-19T20:44:14.585Z,57.80
2018-04-19T20:46:44.917Z,57.00
2018-04-19T20:49:15.275Z,56.90
2018-04-19T20:51:51.790Z,57.80
2018-04-19T20:54:22.898Z,59.40
2018-04-19T20:56:53.246Z,59.40
2018-04-19T20:59:23.611Z,59.20
2018-04-19T21:01:53.972Z,59.40
2018-04-19T21:04:24.320Z,59.30
2018-04-19T21:06:54.699Z,59.70
2018-04-19T21:09:25.037Z,59.90
2018-04-19T21:12:15.505Z,60.40
2018-04-19T21:14:45.855Z,60.40
2018-04-19T21:17:20.283Z,59.70
2018-04-19T21:20:12.029Z,58.60
2018-04-19T21:22:42.384Z,58.20
2018-04-19T21:25:13.508Z,57.50
2018-04-19T21:27:43.889Z,57.50
2018-04-19T21:30:15.232Z,57.90
2018-04-19T21:32:45.837Z,57.20
2018-04-19T21:35:16.990Z,56.50
2018-04-19T21:37:48.114Z,56.70
2018-04-19T21:40:19.236Z,57.20
2018-04-19T21:42:49.618Z,57.50
2018-04-19T21:45:19.958Z,57.40
2018-04-19T21:47:54.406Z,58.40
2018-04-19T21:50:24.759Z,57.50
2018-04-19T21:52:55.113Z,57.90
2018-04-19T21:55:25.471Z,58.20
2018-04-19T21:58:18.010Z,57.60
2018-04-19T22:01:07.475Z,58.90
2018-04-19T22:03:38.881Z,58.70
2018-04-19T22:06:09.232Z,58.20
2018-04-19T22:08:39.583Z,58.10
2018-04-19T22:11:16.100Z,58.70
2018-04-19T22:13:47.225Z,57.90
2018-04-19T22:16:17.581Z,57.80
2018-04-19T22:18:48.734Z,57.20
2018-04-19T22:21:19.865Z,57.70
2018-04-19T22:23:50.226Z,57.70
2018-04-19T22:26:20.593Z,58.40
2018-04-19T22:28:50.937Z,59.50
2018-04-19T22:31:22.011Z,59.70
2018-04-19T22:33:52.340Z,59.80
2018-04-19T22:36:22.945Z,58.10
2018-04-19T22:38:54.068Z,58.00
2018-04-19T22:41:24.454Z,57.90
2018-04-19T22:43:58.907Z,57.90
2018-04-19T22:46:29.281Z,58.30
2018-04-19T22:48:59.645Z,58.60
2018-04-19T22:51:49.406Z,58.70
2018-04-19T22:54:19.745Z,59.70
2018-04-19T22:57:10.518Z,59.40
2018-04-19T22:59:40.880Z,59.20
2018-04-19T23:02:12.256Z,59.10
2018-04-19T23:04:42.833Z,59.10
2018-04-19T23:07:13.197Z,59.00
2018-04-19T23:09:43.539Z,59.10
2018-04-19T23:12:13.915Z,59.30
2018-04-19T23:14:44.256Z,59.20
2018-04-19T23:17:14.624Z,58.90
2018-04-19T23:19:45.001Z,59.40
2018-04-19T23:22:15.363Z,60.40
2018-04-19T23:24:45.703Z,60.30
2018-04-19T23:27:17.764Z,62.10
2018-04-19T23:29:48.121Z,61.60
2018-04-19T23:32:18.482Z,62.40
2018-04-19T23:35:10.282Z,61.50
2018-04-19T23:37:40.629Z,62.10
2018-04-19T23:40:18.148Z,61.60
2018-04-19T23:42:48.489Z,61.10
2018-04-19T23:45:18.853Z,60.90
2018-04-19T23:47:49.229Z,61.40
2018-04-19T23:50:19.537Z,62.20
2018-04-19T23:52:49.898Z,62.90
2018-04-19T23:55:21.041Z,64.30
2018-04-19T23:57:52.144Z,64.30
